Time;durP1;ratioP1;P1;durP2;ratioP2;P2;SDS_P1;SDS_P2;PMS_P1;PMS_P2;Temp;Humidity;BMP_temperature;BMP_pressure;BME280_temperature;BME280_humidity;BME280_pressure;Samples;Min_cycle;Max_cycle;Signal;HPM_P1;HPM_P2
2022/07/12 00:00:28;;;;;;;7.43;3.40;;;;;;;23.16;55.57;100886.44;5069252;28;20585;-62
2022/07/12 00:02:54;;;;;;;4.60;3.47;;;;;;;23.15;55.55;100884.81;5069381;28;20178;-62
2022/07/12 00:05:19;;;;;;;6.93;3.20;;;;;;;23.14;55.92;100886.84;5069009;28;20663;-62
2022/07/12 00:07:45;;;;;;;5.07;3.50;;;;;;;23.17;55.07;100888.94;5076764;28;20331;-62
2022/07/12 00:10:10;;;;;;;3.57;2.90;;;;;;;23.16;55.34;100886.44;5088962;28;20146;-62
2022/07/12 00:12:35;;;;;;;6.40;3.40;;;;;;;23.15;55.31;100891.41;5090002;28;20668;-62
2022/07/12 00:15:01;;;;;;;10.23;3.00;;;;;;;23.15;55.11;100893.44;5090393;28;20171;-62
2022/07/12 00:17:26;;;;;;;4.73;2.70;;;;;;;23.13;55.40;100885.19;5090981;28;20170;-62
2022/07/12 00:19:52;;;;;;;5.93;3.03;;;;;;;23.12;55.62;100885.59;5090453;28;20195;-62
2022/07/12 00:22:17;;;;;;;6.40;3.17;;;;;;;23.10;55.41;100883.13;5081284;28;20178;-62
2022/07/12 00:24:43;;;;;;;4.67;2.87;;;;;;;23.10;55.73;100888.88;5069441;28;20183;-62
2022/07/12 00:27:08;;;;;;;6.57;3.33;;;;;;;23.08;55.40;100882.69;5077049;28;20179;-62
2022/07/12 00:29:33;;;;;;;4.23;2.80;;;;;;;23.06;55.65;100893.78;5088908;28;20174;-62
2022/07/12 00:31:59;;;;;;;4.20;2.77;;;;;;;23.05;55.82;100886.38;5088905;28;20194;-62
2022/07/12 00:34:24;;;;;;;6.27;2.77;;;;;;;23.07;55.61;100880.19;5088996;28;20648;-63
2022/07/12 00:36:50;;;;;;;4.83;2.90;;;;;;;23.08;55.17;100881.88;5088877;28;20167;-63
2022/07/12 00:39:15;;;;;;;4.50;2.67;;;;;;;23.07;55.47;100889.66;5089135;28;20715;-63
2022/07/12 00:41:42;;;;;;;6.93;3.20;;;;;;;23.06;55.33;100873.63;5091007;28;20439;-62
2022/07/12 00:44:07;;;;;;;4.23;3.13;;;;;;;23.08;55.82;100873.22;5089707;28;20173;-62
2022/07/12 00:46:33;;;;;;;4.17;3.20;;;;;;;23.07;55.23;100875.28;5090470;28;20424;-62
2022/07/12 00:48:58;;;;;;;3.87;2.37;;;;;;;23.08;55.62;100879.78;5088933;28;20178;-62
2022/07/12 00:51:25;;;;;;;5.17;2.80;;;;;;;23.07;55.36;100872.38;5090019;28;20531;-62
2022/07/12 00:53:51;;;;;;;4.60;3.03;;;;;;;23.07;55.32;100878.16;5090552;28;20267;-62
2022/07/12 00:56:16;;;;;;;3.77;2.60;;;;;;;23.04;55.09;100881.84;5088959;28;20417;-62
2022/07/12 00:58:44;;;;;;;6.80;3.17;;;;;;;23.03;55.64;100880.16;5090131;28;20174;-62
2022/07/12 01:01:10;;;;;;;3.97;2.63;;;;;;;23.03;55.70;100883.03;5092086;28;20647;-62
2022/07/12 01:03:35;;;;;;;3.90;2.50;;;;;;;23.02;55.55;100874.81;5092151;28;20494;-62
2022/07/12 01:06:01;;;;;;;4.57;2.90;;;;;;;22.98;55.52;100880.53;5093276;28;20194;-62
2022/07/12 01:08:26;;;;;;;3.60;2.63;;;;;;;22.90;55.48;100875.94;5093822;28;20225;-62
2022/07/12 01:10:52;;;;;;;5.30;2.80;;;;;;;22.94;56.08;100873.09;5093856;28;20181;-62
2022/07/12 01:13:17;;;;;;;6.70;2.90;;;;;;;22.97;55.63;100878.06;5092691;28;20649;-62
2022/07/12 01:15:43;;;;;;;5.20;2.23;;;;;;;22.95;55.82;100881.34;5093984;28;20155;-62
2022/07/12 01:18:08;;;;;;;4.40;2.97;;;;;;;22.96;55.39;100874.34;5094031;28;20166;-62
2022/07/12 01:20:34;;;;;;;3.90;2.47;;;;;;;22.96;55.63;100883.00;5075064;28;20207;-62
2022/07/12 01:22:59;;;;;;;4.50;2.50;;;;;;;22.96;55.41;100877.22;5091916;28;20206;-62
2022/07/12 01:25:25;;;;;;;3.80;2.47;;;;;;;22.98;55.34;100876.84;5093652;28;20188;-62
2022/07/12 01:27:50;;;;;;;4.20;2.47;;;;;;;22.98;55.79;100880.53;5093259;28;20174;-62
2022/07/12 01:30:16;;;;;;;3.63;2.60;;;;;;;22.99;55.62;100882.22;5092865;28;20256;-62
2022/07/12 01:32:41;;;;;;;3.33;2.27;;;;;;;22.96;55.37;100880.13;5093521;28;20185;-62
2022/07/12 01:35:07;;;;;;;4.20;2.23;;;;;;;22.97;55.69;100890.41;5093386;28;20181;-62
2022/07/12 01:37:37;;;;;;;3.40;2.00;;;;;;;22.96;55.29;100888.75;5092334;28;20175;-62
2022/07/12 01:40:06;;;;;;;3.20;2.00;;;;;;;22.96;55.41;100877.22;5093580;28;20186;-62
2022/07/12 01:42:31;;;;;;;3.80;2.30;;;;;;;22.97;55.52;100889.59;5093474;28;20537;-62
2022/07/12 01:44:57;;;;;;;4.40;2.03;;;;;;;22.96;55.49;100880.13;5092947;28;20483;-62
2022/07/12 01:47:25;;;;;;;5.00;2.57;;;;;;;22.97;55.38;100887.53;5093233;28;20587;-62
2022/07/12 01:49:50;;;;;;;3.87;2.20;;;;;;;22.97;55.50;100878.88;5092632;28;20640;-62
2022/07/12 01:52:16;;;;;;;4.63;2.40;;;;;;;22.97;55.52;100872.31;5084125;28;20425;-62
2022/07/12 01:54:42;;;;;;;4.63;2.47;;;;;;;22.97;55.48;100884.63;5071162;28;20175;-62
2022/07/12 01:57:07;;;;;;;5.20;1.93;;;;;;;22.95;55.39;100875.59;5072595;28;20179;-62
2022/07/12 01:59:33;;;;;;;3.07;2.17;;;;;;;22.93;55.48;100878.00;5072459;28;20202;-62
2022/07/12 02:01:58;;;;;;;4.03;2.30;;;;;;;22.93;55.55;100877.22;5072371;28;20179;-62
2022/07/12 02:04:24;;;;;;;4.50;2.30;;;;;;;22.93;55.56;100886.66;5072278;28;20202;-62
2022/07/12 02:06:49;;;;;;;3.00;2.17;;;;;;;22.91;55.22;100883.34;5081230;28;20206;-62
2022/07/12 02:09:15;;;;;;;4.80;2.40;;;;;;;22.91;55.40;100880.47;5090235;28;20210;-62
2022/07/12 02:11:41;;;;;;;3.33;2.10;;;;;;;22.92;55.72;100875.56;5089937;28;20182;-62
2022/07/12 02:14:07;;;;;;;3.77;2.07;;;;;;;22.93;55.55;100877.22;5090082;28;20249;-62
2022/07/12 02:16:32;;;;;;;5.53;2.40;;;;;;;22.93;55.72;100878.00;5090531;28;20550;-62
2022/07/12 02:18:58;;;;;;;3.10;2.10;;;;;;;22.94;55.73;100882.56;5088706;28;20288;-62
2022/07/12 02:21:23;;;;;;;2.67;2.00;;;;;;;22.93;55.39;100883.78;5090850;28;20264;-62
2022/07/12 02:23:49;;;;;;;4.00;2.07;;;;;;;22.96;55.63;100887.91;5072469;28;20175;-62
2022/07/12 02:26:15;;;;;;;4.70;2.30;;;;;;;22.95;55.43;100895.75;5072866;28;20182;-62
2022/07/12 02:28:40;;;;;;;3.10;2.10;;;;;;;22.96;55.42;100887.91;5092319;28;20203;-62
2022/07/12 02:31:06;;;;;;;3.70;2.10;;;;;;;22.95;55.19;100883.38;5092033;28;20198;-62
2022/07/12 02:33:31;;;;;;;4.00;2.17;;;;;;;22.93;55.42;100885.84;5091855;28;20183;-62
2022/07/12 02:35:57;;;;;;;3.07;1.80;;;;;;;22.94;55.52;100887.50;5092157;28;20934;-62
2022/07/12 02:38:22;;;;;;;3.50;2.00;;;;;;;22.94;55.22;100887.50;5091994;28;20515;-62
2022/07/12 02:40:54;;;;;;;6.03;2.53;;;;;;;22.90;55.91;100887.47;5092181;28;20198;-62
2022/07/12 02:43:29;;;;;;;3.10;2.10;;;;;;;22.90;55.50;100883.75;5092413;28;20158;-62
2022/07/12 02:46:16;;;;;;;3.30;2.27;;;;;;;22.90;55.48;100884.59;5091872;28;20447;-62
2022/07/12 02:48:42;;;;;;;2.73;1.80;;;;;;;22.91;55.68;100886.25;5091321;28;20440;-62
2022/07/12 02:51:07;;;;;;;5.17;2.00;;;;;;;22.91;55.61;100889.13;5091671;28;20557;-62
2022/07/12 02:53:34;;;;;;;4.13;2.13;;;;;;;22.91;55.66;100900.63;5091709;28;20182;-62
2022/07/12 02:55:59;;;;;;;2.87;1.80;;;;;;;22.89;55.45;100903.09;5091468;28;20253;-62
2022/07/12 02:58:25;;;;;;;4.10;2.20;;;;;;;22.88;55.41;100895.66;5091334;28;20470;-62
2022/07/12 03:00:50;;;;;;;3.07;2.13;;;;;;;22.88;55.67;100904.28;5092033;28;20237;-62
2022/07/12 03:03:15;;;;;;;3.30;1.90;;;;;;;22.88;55.93;100891.97;5091523;28;20182;-62
2022/07/12 03:05:41;;;;;;;3.80;2.07;;;;;;;22.85;55.71;100893.59;5091340;28;20674;-62
2022/07/12 03:08:07;;;;;;;4.13;2.40;;;;;;;22.85;55.84;100889.88;5091410;28;20241;-62
2022/07/12 03:10:33;;;;;;;2.93;2.07;;;;;;;22.85;55.61;100892.75;5091326;28;20181;-62
2022/07/12 03:12:59;;;;;;;4.10;2.20;;;;;;;22.83;56.00;100893.13;5091718;28;20416;-62
2022/07/12 03:15:24;;;;;;;2.67;2.00;;;;;;;22.80;56.01;100896.81;5089958;28;20243;-62
2022/07/12 03:17:49;;;;;;;3.40;2.30;;;;;;;22.81;56.18;100891.88;5090028;28;20174;-62
2022/07/12 03:20:15;;;;;;;3.47;2.17;;;;;;;22.80;56.11;100887.34;5089571;28;20217;-62
2022/07/12 03:22:41;;;;;;;3.40;1.90;;;;;;;22.77;55.92;100886.09;5088927;28;20182;-62
2022/07/12 03:25:10;;;;;;;5.03;2.00;;;;;;;22.78;55.98;100887.72;5088964;28;20181;-62
2022/07/12 03:27:35;;;;;;;4.67;2.30;;;;;;;22.76;56.30;100887.31;5088747;28;20941;-62
2022/07/12 03:30:01;;;;;;;2.97;1.80;;;;;;;22.77;56.19;100896.78;5090081;28;20404;-62
2022/07/12 03:32:26;;;;;;;3.23;1.93;;;;;;;22.78;56.25;100892.69;5090814;28;20187;-62
2022/07/12 03:34:52;;;;;;;5.37;2.30;;;;;;;22.78;56.15;100889.81;5091305;28;20603;-62
2022/07/12 03:37:17;;;;;;;3.40;2.20;;;;;;;22.75;56.24;100888.53;5091261;28;20170;-62
2022/07/12 03:39:43;;;;;;;4.60;2.10;;;;;;;22.78;56.20;100893.50;5090122;28;20201;-62
2022/07/12 03:42:12;;;;;;;4.10;2.07;;;;;;;22.80;55.82;100898.88;5089517;28;20173;-62
2022/07/12 03:44:37;;;;;;;7.40;2.33;;;;;;;22.77;55.98;100903.38;5087343;28;20182;-62
2022/07/12 03:47:03;;;;;;;3.83;2.53;;;;;;;22.80;56.03;100913.25;5087820;28;20428;-62
2022/07/12 03:49:28;;;;;;;3.43;2.13;;;;;;;22.80;55.76;100911.22;5087912;28;20162;-62
2022/07/12 03:51:54;;;;;;;2.97;2.07;;;;;;;22.81;55.72;100921.50;5082315;28;20182;-62
2022/07/12 03:54:19;;;;;;;2.63;1.80;;;;;;;22.81;55.58;100915.75;5068533;28;20182;-62
2022/07/12 03:59:29;;;;;;;2.83;1.90;;;;;;;22.81;55.67;100915.75;5069360;28;20613;-62
2022/07/12 04:01:54;;;;;;;3.20;1.90;;;;;;;22.82;55.43;100922.34;5070544;28;20425;-62
2022/07/12 04:04:20;;;;;;;4.47;2.00;;;;;;;22.80;55.99;100922.75;5075569;28;20175;-62
2022/07/12 04:06:46;;;;;;;5.53;2.87;;;;;;;22.80;55.67;100931.38;5089874;28;20202;-62
2022/07/12 04:09:11;;;;;;;6.43;2.63;;;;;;;22.79;55.53;100926.84;5090841;28;20222;-62
2022/07/12 04:11:37;;;;;;;3.80;2.60;;;;;;;22.76;55.51;100926.78;5090637;28;20182;-62
2022/07/12 04:14:02;;;;;;;3.20;2.27;;;;;;;22.76;56.07;100935.41;5091054;28;20632;-62
2022/07/12 04:16:29;;;;;;;4.13;1.73;;;;;;;22.75;55.66;100934.59;5090443;28;20183;-62
2022/07/12 04:18:55;;;;;;;2.83;2.10;;;;;;;22.77;55.57;100931.34;5090850;28;20691;-62
2022/07/12 04:21:20;;;;;;;6.07;2.37;;;;;;;22.75;55.94;100934.59;5090737;28;20502;-62
2022/07/12 04:23:46;;;;;;;5.43;2.27;;;;;;;22.74;55.83;100932.97;5090324;28;20235;-62
2022/07/12 04:26:11;;;;;;;3.60;2.03;;;;;;;22.75;55.52;100940.38;5090318;28;20178;-62
2022/07/12 04:28:37;;;;;;;3.30;2.20;;;;;;;22.76;56.02;100938.31;5089496;28;20174;-62
2022/07/12 04:31:02;;;;;;;2.80;1.80;;;;;;;22.76;55.80;100939.13;5089293;28;20177;-62
2022/07/12 04:33:28;;;;;;;3.63;2.20;;;;;;;22.75;55.77;100948.16;5089307;28;20236;-62
2022/07/12 04:35:53;;;;;;;4.83;1.80;;;;;;;22.77;55.96;100946.53;5090193;28;20190;-62
2022/07/12 04:38:19;;;;;;;3.73;2.10;;;;;;;22.77;55.57;100942.84;5093291;28;20185;-62
2022/07/12 04:40:44;;;;;;;5.37;2.10;;;;;;;22.77;55.87;100949.44;5092909;28;20202;-63
2022/07/12 04:43:09;;;;;;;2.63;1.83;;;;;;;22.81;55.78;100950.31;5093012;28;20229;-62
2022/07/12 04:45:35;;;;;;;2.90;2.00;;;;;;;22.82;55.75;100949.06;5094291;28;20630;-62
2022/07/12 04:48:00;;;;;;;2.90;1.80;;;;;;;22.84;55.93;100943.75;5094400;28;20201;-62
2022/07/12 04:50:26;;;;;;;6.93;1.90;;;;;;;22.81;55.81;100938.78;5094543;28;20166;-62
2022/07/12 04:52:52;;;;;;;4.40;2.00;;;;;;;22.82;55.86;100942.50;5094222;28;20555;-62
2022/07/12 04:55:17;;;;;;;4.97;2.60;;;;;;;22.86;56.06;100940.47;5093757;28;20178;-62
2022/07/12 04:57:42;;;;;;;3.97;2.40;;;;;;;22.83;56.20;100944.97;5094348;28;20539;-62
2022/07/12 05:00:08;;;;;;;3.37;2.07;;;;;;;22.85;56.28;100951.19;5094086;28;20206;-62
2022/07/12 05:02:34;;;;;;;4.20;2.00;;;;;;;22.87;55.87;100948.72;5093376;28;20182;-62
2022/07/12 05:04:59;;;;;;;5.20;1.93;;;;;;;22.86;56.55;100951.97;5093827;28;20423;-62
2022/07/12 05:07:25;;;;;;;4.03;2.00;;;;;;;22.75;56.72;100951.88;5093913;28;20224;-62
2022/07/12 05:09:53;;;;;;;2.97;1.97;;;;;;;22.73;56.40;100941.97;5093922;28;20606;-62
2022/07/12 05:12:19;;;;;;;2.93;1.90;;;;;;;22.77;56.56;100955.19;5093327;28;20243;-62
2022/07/12 05:14:44;;;;;;;3.40;2.40;;;;;;;22.77;56.77;100960.94;5093512;28;20423;-62
2022/07/12 05:17:10;;;;;;;3.57;1.90;;;;;;;22.78;56.71;100956.84;5092462;28;20182;-62
2022/07/12 05:19:37;;;;;;;3.90;1.90;;;;;;;22.73;56.76;100954.31;5093080;28;20227;-62
2022/07/12 05:22:02;;;;;;;2.73;1.77;;;;;;;22.78;56.81;100956.03;5093225;28;20185;-62
2022/07/12 05:24:28;;;;;;;7.03;1.90;;;;;;;22.69;57.30;100950.59;5093825;28;20928;-62
2022/07/12 05:26:54;;;;;;;2.53;1.70;;;;;;;22.64;57.47;100950.94;5093766;28;20178;-62
2022/07/12 05:29:19;;;;;;;3.37;1.80;;;;;;;22.74;56.67;100956.00;5093663;28;20220;-62
2022/07/12 05:31:44;;;;;;;3.30;2.13;;;;;;;22.80;57.15;100959.31;5092901;28;20664;-62
2022/07/12 05:34:10;;;;;;;4.60;1.87;;;;;;;22.75;57.01;100953.91;5088959;28;20178;-62
2022/07/12 05:36:35;;;;;;;2.00;1.50;;;;;;;22.79;56.46;100961.41;5072977;28;20171;-62
2022/07/12 05:39:01;;;;;;;2.40;1.83;;;;;;;22.80;56.89;100962.22;5092011;28;20182;-62
2022/07/12 05:41:26;;;;;;;4.13;2.47;;;;;;;22.71;57.15;100958.81;5093149;28;20272;-62
2022/07/12 05:43:52;;;;;;;3.17;1.60;;;;;;;22.68;57.53;100971.94;5093511;28;20712;-62
2022/07/12 05:46:17;;;;;;;3.80;1.77;;;;;;;22.53;57.38;100978.72;5093151;28;20698;-62
2022/07/12 05:48:42;;;;;;;3.40;1.80;;;;;;;22.68;57.64;100974.81;5092919;28;20179;-62
2022/07/12 05:53:52;;;;;;;3.10;1.63;;;;;;;22.77;57.24;100980.28;5092902;28;20265;-62
2022/07/12 05:56:17;;;;;;;3.33;2.13;;;;;;;22.75;57.36;100974.06;5093194;28;20420;-62
2022/07/12 05:58:43;;;;;;;3.13;1.60;;;;;;;22.76;56.99;100979.44;5092216;28;20665;-62
2022/07/12 06:01:08;;;;;;;2.60;1.80;;;;;;;22.64;57.76;100982.59;5092688;28;20195;-62
2022/07/12 06:03:34;;;;;;;3.13;1.70;;;;;;;22.66;57.28;100988.78;5092695;28;20186;-61
2022/07/12 06:05:59;;;;;;;2.10;1.40;;;;;;;22.71;57.22;100997.06;5092577;28;20198;-61
2022/07/12 06:08:25;;;;;;;3.23;2.07;;;;;;;22.70;57.53;100997.44;5090566;28;20321;-61
2022/07/12 06:10:50;;;;;;;3.03;1.60;;;;;;;22.72;57.51;100995.84;5092531;28;20250;-61
2022/07/12 06:13:15;;;;;;;4.00;1.87;;;;;;;22.72;57.41;101000.78;5092905;28;20182;-61
2022/07/12 06:15:41;;;;;;;4.13;1.97;;;;;;;22.82;57.20;100998.03;5092708;28;20277;-61
2022/07/12 06:18:06;;;;;;;2.83;1.80;;;;;;;22.70;57.28;101001.19;5092201;28;20220;-61
2022/07/12 06:20:32;;;;;;;3.10;1.60;;;;;;;22.72;57.43;101010.22;5092195;28;20650;-61
2022/07/12 06:22:57;;;;;;;3.70;2.00;;;;;;;22.74;57.48;101006.97;5092810;28;20225;-61
2022/07/12 06:25:23;;;;;;;4.20;2.00;;;;;;;22.77;57.48;101003.31;5092630;28;20171;-61
2022/07/12 06:27:49;;;;;;;4.40;1.67;;;;;;;22.80;56.97;101006.22;5091477;28;20190;-61
2022/07/12 06:30:18;;;;;;;6.50;2.00;;;;;;;22.67;57.97;101010.59;5092633;28;20177;-61
2022/07/12 06:32:50;;;;;;;4.43;1.73;;;;;;;22.64;57.96;101014.25;5092722;28;20692;-61
2022/07/12 06:35:16;;;;;;;2.47;1.40;;;;;;;22.62;57.86;101010.94;5078018;28;20421;-61
2022/07/12 06:37:41;;;;;;;3.10;1.80;;;;;;;22.54;57.93;101011.22;5071483;28;20429;-61
2022/07/12 06:40:07;;;;;;;2.90;1.47;;;;;;;22.66;57.81;101017.56;5072087;28;20198;-61
2022/07/12 06:42:33;;;;;;;3.03;1.87;;;;;;;22.73;56.93;101017.66;5071980;28;20187;-61
2022/07/12 06:44:58;;;;;;;2.23;1.37;;;;;;;22.68;57.28;101012.22;5071131;28;20554;-61
2022/07/12 06:47:24;;;;;;;2.63;1.60;;;;;;;22.73;57.28;101011.88;5072233;28;20179;-61
2022/07/12 06:49:49;;;;;;;2.53;1.73;;;;;;;22.72;57.35;101012.31;5071625;28;20179;-61
2022/07/12 06:52:15;;;;;;;6.90;1.77;;;;;;;22.71;57.73;101019.25;5071765;28;20182;-61
2022/07/12 06:54:40;;;;;;;2.80;1.40;;;;;;;22.75;57.42;101018.09;5070896;28;20182;-61
2022/07/12 06:57:06;;;;;;;3.90;1.80;;;;;;;22.71;57.34;101022.97;5074207;28;20174;-61
2022/07/12 06:59:31;;;;;;;3.73;1.63;;;;;;;22.61;58.03;101026.56;5090779;28;20243;-61
2022/07/12 07:01:57;;;;;;;4.10;1.90;;;;;;;22.70;57.56;101029.97;5091632;28;20234;-61
2022/07/12 07:04:23;;;;;;;2.87;1.70;;;;;;;22.73;57.23;101031.22;5091107;28;20194;-61
2022/07/12 07:06:48;;;;;;;3.20;1.40;;;;;;;22.79;56.82;101033.38;5091645;28;20245;-61
2022/07/12 07:09:14;;;;;;;3.70;1.60;;;;;;;22.81;57.30;101030.91;5091672;28;20973;-61
2022/07/12 07:11:40;;;;;;;3.57;1.70;;;;;;;22.81;57.29;101030.06;5090454;28;20545;-61
2022/07/12 07:14:06;;;;;;;2.50;1.50;;;;;;;22.78;57.25;101034.56;5090982;28;20206;-61
2022/07/12 07:16:31;;;;;;;2.20;1.50;;;;;;;22.72;56.96;101039.03;5091837;28;20182;-61
2022/07/12 07:18:56;;;;;;;2.90;1.70;;;;;;;22.73;57.44;101034.09;5091727;28;20177;-61
2022/07/12 07:21:22;;;;;;;4.13;1.60;;;;;;;22.81;57.01;101032.97;5091652;28;20210;-61
2022/07/12 07:23:47;;;;;;;6.30;1.70;;;;;;;22.78;57.14;101042.41;5090373;28;20228;-61
2022/07/12 07:26:13;;;;;;;2.77;1.60;;;;;;;22.73;57.13;101034.91;5091981;28;20548;-61
2022/07/12 07:31:22;;;;;;;1.90;1.20;;;;;;;22.75;57.35;101038.25;5090158;28;20184;-61
2022/07/12 07:33:48;;;;;;;2.87;1.70;;;;;;;22.79;57.38;101046.94;5086874;28;20798;-61
2022/07/12 07:36:13;;;;;;;2.20;1.30;;;;;;;22.79;56.96;101050.66;5067541;28;20175;-61
2022/07/12 07:38:38;;;;;;;2.07;1.43;;;;;;;22.84;57.03;101037.94;5066997;28;20178;-61
2022/07/12 07:41:04;;;;;;;2.20;1.43;;;;;;;22.82;57.32;101044.09;5067302;28;20206;-61
2022/07/12 07:43:29;;;;;;;4.17;1.83;;;;;;;22.82;57.16;101037.53;5067549;28;20171;-61
2022/07/12 07:45:56;;;;;;;2.80;1.40;;;;;;;22.87;56.82;101040.88;5067702;28;20232;-61
2022/07/12 07:48:21;;;;;;;3.50;1.43;;;;;;;22.90;56.80;101045.00;5068912;28;20179;-61
2022/07/12 07:50:47;;;;;;;3.87;1.70;;;;;;;22.92;56.96;101043.41;5069749;28;20766;-61
2022/07/12 07:53:12;;;;;;;6.80;1.80;;;;;;;22.96;55.88;101040.53;5070964;28;20385;-61
2022/07/12 07:55:38;;;;;;;4.00;1.47;;;;;;;22.94;56.49;101046.72;5090631;28;20235;-61
2022/07/12 07:58:03;;;;;;;2.87;1.23;;;;;;;22.95;56.50;101042.63;5090448;28;20245;-61
2022/07/12 08:00:29;;;;;;;2.00;1.20;;;;;;;22.98;56.15;101047.56;5090460;28;20194;-61
2022/07/12 08:02:57;;;;;;;5.83;1.00;;;;;;;22.97;56.38;101040.16;5090055;28;20182;-61
2022/07/12 08:05:23;;;;;;;3.00;1.33;;;;;;;22.99;55.94;101040.63;5074497;28;20305;-61
2022/07/12 08:07:48;;;;;;;3.77;1.57;;;;;;;23.01;55.81;101046.81;5068530;28;20563;-61
2022/07/12 08:10:14;;;;;;;3.50;1.60;;;;;;;23.05;55.78;101044.78;5081825;28;20710;-61
2022/07/12 08:12:39;;;;;;;3.50;1.60;;;;;;;23.08;55.45;101046.06;5093684;28;20669;-61
2022/07/12 08:15:06;;;;;;;2.03;1.30;;;;;;;23.10;55.56;101044.44;5092930;28;20155;-61
2022/07/12 08:17:31;;;;;;;4.70;1.33;;;;;;;23.13;55.26;101043.63;5093656;28;20174;-61
2022/07/12 08:19:56;;;;;;;2.47;1.43;;;;;;;23.17;55.09;101044.50;5093994;28;20447;-61
2022/07/12 08:22:22;;;;;;;2.40;1.30;;;;;;;23.17;54.95;101044.50;5094613;28;20559;-61
2022/07/12 08:24:47;;;;;;;4.07;1.50;;;;;;;23.19;54.98;101044.97;5093183;28;20170;-61
2022/07/12 08:27:13;;;;;;;3.70;1.40;;;;;;;23.21;55.02;101044.56;5093078;28;20648;-61
2022/07/12 08:29:38;;;;;;;2.37;1.43;;;;;;;23.22;54.83;101047.06;5093700;28;20503;-61
2022/07/12 08:32:05;;;;;;;3.43;0.93;;;;;;;23.26;54.80;101047.94;5094412;28;20178;-61
2022/07/12 08:34:30;;;;;;;1.90;0.87;;;;;;;23.27;54.19;101049.59;5086863;28;20297;-61
2022/07/12 08:36:56;;;;;;;5.93;1.27;;;;;;;23.31;54.13;101043.84;5073590;28;20999;-61
2022/07/12 08:39:21;;;;;;;2.40;1.00;;;;;;;23.29;53.95;101041.38;5072649;28;20396;-61
2022/07/12 08:41:47;;;;;;;2.07;1.20;;;;;;;23.32;53.66;101039.75;5071685;28;20175;-61
2022/07/12 08:44:12;;;;;;;3.70;1.00;;;;;;;23.37;53.76;101048.88;5071246;28;20190;-61
2022/07/12 08:46:38;;;;;;;1.90;0.93;;;;;;;23.34;53.60;101043.91;5071495;28;20618;-61
2022/07/12 08:49:09;;;;;;;2.63;1.10;;;;;;;23.36;53.68;101046.38;5070622;28;20178;-61
2022/07/12 08:51:35;;;;;;;4.63;1.10;;;;;;;23.43;52.93;101046.47;5070953;28;20271;-61
2022/07/12 08:54:07;;;;;;;2.87;1.37;;;;;;;23.41;53.22;101046.88;5070851;28;20408;-61
2022/07/12 08:56:33;;;;;;;2.37;0.87;;;;;;;23.44;53.21;101053.88;5072156;28;20190;-61
2022/07/12 08:59:18;;;;;;;3.00;1.20;;;;;;;23.43;53.12;101053.06;5072448;28;20410;-61
2022/07/12 09:01:45;;;;;;;1.40;0.90;;;;;;;23.44;53.50;101051.00;5072374;28;20491;-61
2022/07/12 09:04:15;;;;;;;3.10;0.90;;;;;;;23.44;52.99;101051.81;5072005;28;20429;-62
2022/07/12 09:06:40;;;;;;;2.53;1.10;;;;;;;23.42;53.56;101051.41;5091636;28;20990;-62
2022/07/12 09:09:08;;;;;;;3.37;1.00;;;;;;;23.42;53.01;101051.41;5091816;28;20555;-62
2022/07/12 09:11:37;;;;;;;3.67;1.17;;;;;;;23.46;53.04;101054.31;5092319;28;20165;-62
2022/07/12 09:14:02;;;;;;;2.20;1.20;;;;;;;23.43;52.83;101055.13;5093174;28;20404;-62
2022/07/12 09:16:28;;;;;;;2.07;0.90;;;;;;;23.45;53.44;101050.63;5091989;28;20416;-62
2022/07/12 09:19:23;;;;;;;7.30;1.83;;;;;;;23.55;53.05;101055.66;5092301;28;20182;-62
2022/07/12 09:21:51;;;;;;;4.70;1.40;;;;;;;23.57;52.81;101053.19;5086781;28;20190;-62
2022/07/12 09:24:18;;;;;;;3.13;1.37;;;;;;;23.55;53.01;101066.34;5091298;28;20442;-62
2022/07/12 09:26:44;;;;;;;3.03;1.30;;;;;;;23.55;52.95;101057.72;5092130;28;20498;-62
2022/07/12 09:29:10;;;;;;;2.47;1.37;;;;;;;23.58;52.99;101059.81;5092973;28;20416;-62
2022/07/12 09:37:16;;;;;;;2.10;1.40;;;;;;;23.70;52.32;101057.47;5092071;28;20844;-62
2022/07/12 09:39:41;;;;;;;1.67;1.00;;;;;;;23.69;52.55;101061.53;5091089;28;20479;-62
2022/07/12 09:42:09;;;;;;;2.83;1.57;;;;;;;23.67;52.71;101046.69;5091377;28;20617;-62
2022/07/12 09:44:34;;;;;;;4.83;1.50;;;;;;;23.68;52.49;101050.44;5091415;28;20316;-62
2022/07/12 09:47:00;;;;;;;2.67;1.50;;;;;;;23.69;52.54;101049.19;5092092;28;20774;-62
2022/07/12 09:49:26;;;;;;;2.57;1.40;;;;;;;23.71;52.69;101053.34;5091957;28;20170;-62
2022/07/12 09:51:53;;;;;;;3.17;1.90;;;;;;;23.79;51.82;101054.22;5091788;28;20232;-62
2022/07/12 09:54:22;;;;;;;5.80;1.70;;;;;;;23.80;51.67;101055.88;5090454;28;20166;-62
2022/07/12 09:56:48;;;;;;;3.70;1.60;;;;;;;23.75;51.78;101054.22;5075283;28;20420;-62
2022/07/12 09:59:13;;;;;;;4.50;1.40;;;;;;;23.79;51.14;101051.34;5090915;28;20938;-62
2022/07/12 10:01:39;;;;;;;2.83;1.70;;;;;;;23.79;51.40;101057.13;5091171;28;20206;-62
2022/07/12 10:04:04;;;;;;;4.40;1.90;;;;;;;23.76;51.48;101047.19;5088877;28;20587;-62
2022/07/12 10:06:30;;;;;;;4.03;1.63;;;;;;;23.77;51.91;101056.66;5072455;28;20233;-62
2022/07/12 10:08:56;;;;;;;2.47;1.40;;;;;;;23.78;51.90;101050.50;5072264;28;20657;-62
2022/07/12 10:11:22;;;;;;;5.20;1.57;;;;;;;23.76;51.73;101055.00;5072740;28;20166;-62
2022/07/12 10:13:48;;;;;;;2.23;1.30;;;;;;;23.82;51.97;101056.28;5072963;28;20683;-62
2022/07/12 10:16:13;;;;;;;2.30;1.37;;;;;;;23.81;51.68;101064.13;5072077;28;20421;-62
2022/07/12 10:18:39;;;;;;;2.40;1.37;;;;;;;23.81;51.98;101064.13;5076841;28;20257;-62
2022/07/12 10:21:20;;;;;;;2.77;1.40;;;;;;;23.87;52.23;101058.81;5092279;28;20178;-62
2022/07/12 10:23:45;;;;;;;2.43;1.30;;;;;;;23.88;52.48;101058.41;5092587;28;20817;-62
2022/07/12 10:26:14;;;;;;;3.47;1.50;;;;;;;23.81;52.58;101054.66;5092788;28;20400;-62
2022/07/12 10:28:54;;;;;;;3.10;1.20;;;;;;;23.88;52.39;101052.66;5092317;28;20166;-62
2022/07/12 10:31:20;;;;;;;3.43;1.20;;;;;;;23.91;52.68;101057.66;5090707;28;20416;-62
2022/07/12 10:33:45;;;;;;;2.50;1.40;;;;;;;23.85;52.53;101047.69;5087819;28;20408;-62
2022/07/12 10:36:11;;;;;;;2.60;1.30;;;;;;;23.82;52.71;101051.38;5069603;28;20665;-62
2022/07/12 10:38:36;;;;;;;2.43;1.47;;;;;;;23.87;52.36;101053.03;5068611;28;20217;-62
2022/07/12 10:41:21;;;;;;;3.57;1.40;;;;;;;23.87;52.02;101044.41;5069960;28;20203;-62
2022/07/12 10:44:04;;;;;;;3.60;1.83;;;;;;;23.91;52.37;101043.25;5070168;28;20189;-62
2022/07/12 10:46:30;;;;;;;2.73;1.70;;;;;;;23.94;51.92;101038.72;5070480;28;20413;-62
2022/07/12 10:49:26;;;;;;;2.87;1.50;;;;;;;23.97;51.49;101049.44;5070703;28;20509;-62
2022/07/12 10:52:10;;;;;;;2.43;1.37;;;;;;;23.94;50.91;101042.44;5091283;28;20286;-62
2022/07/12 10:54:56;;;;;;;1.90;1.23;;;;;;;23.91;51.11;101040.38;5091817;28;20409;-62
2022/07/12 10:57:43;;;;;;;4.00;1.33;;;;;;;23.96;51.11;101042.88;5087097;28;20423;-62
2022/07/12 11:00:10;;;;;;;3.00;1.40;;;;;;;23.97;51.29;101047.41;5091948;28;20444;-62
2022/07/12 11:02:35;;;;;;;3.03;1.20;;;;;;;23.98;50.65;101043.28;5091801;28;20442;-61
2022/07/12 11:05:01;;;;;;;2.00;1.20;;;;;;;24.01;50.97;101033.84;5079799;28;20421;-61
2022/07/12 11:07:26;;;;;;;2.43;1.40;;;;;;;23.99;51.24;101036.28;5071089;28;20662;-61
2022/07/12 11:09:52;;;;;;;4.43;1.70;;;;;;;23.99;51.51;101032.59;5071219;28;20649;-61
2022/07/12 11:12:18;;;;;;;2.00;1.17;;;;;;;24.04;51.12;101038.78;5085405;28;20200;-61
2022/07/12 11:14:44;;;;;;;2.27;1.37;;;;;;;24.03;51.21;101027.69;5091477;28;20166;-61
2022/07/12 11:17:10;;;;;;;6.80;1.30;;;;;;;24.01;51.69;101019.41;5090655;28;20177;-61
2022/07/12 11:19:35;;;;;;;2.67;1.70;;;;;;;24.00;51.22;101023.53;5090460;28;20417;-61
2022/07/12 11:22:01;;;;;;;1.97;1.10;;;;;;;24.08;51.42;101024.41;5090431;28;20595;-61
2022/07/12 11:24:29;;;;;;;2.57;1.30;;;;;;;24.09;50.89;101023.19;5090744;28;20641;-61
2022/07/12 11:26:54;;;;;;;3.27;1.10;;;;;;;24.04;51.60;101023.56;5091007;28;20220;-61
2022/07/12 11:29:20;;;;;;;2.47;1.00;;;;;;;24.11;50.43;101027.31;5090697;28;20412;-61
2022/07/12 11:31:45;;;;;;;1.87;1.13;;;;;;;24.09;50.24;101028.97;5090938;28;20169;-61
2022/07/12 11:34:24;;;;;;;2.17;1.13;;;;;;;24.13;50.53;101027.75;5086533;28;20303;-61